Terminal Aerodrome Forecast
Issued by NWS

Home | Current Version | Previous Version | Text Only | Print | Product List | Glossary On
Versions: 1 2 3 4 5 6 7 8 9 10 11 12 13 14 15 16 17
000
FTUS46 KSTO 051610 AAA
TAFSCK
TAF AMD
KSCK 051610Z 0516/0612 VRB04KT 1/4SM FG OVC002
      TEMPO 0517/0518 1SM BR OVC004
     FM051830 29006KT 4SM BR SCT010 BKN250
     FM051930 30008KT P6SM BKN250
     FM061100 32003KT 3SM BCFG SCT002=

USA.gov is the U.S. government's official web portal to all federal, state and local government web resources and services.